createdAt,value
2023-02-26T00:04:35.401Z,96914.69
2023-02-26T00:09:38.842Z,96918.69
2023-02-26T00:14:42.888Z,96923.13
2023-02-26T00:19:47.887Z,96940.13
2023-02-26T00:24:51.023Z,96935.72
2023-02-26T00:29:54.809Z,96944.00
2023-02-26T00:35:00.181Z,96939.38
2023-02-26T00:40:16.115Z,96943.13
2023-02-26T00:45:20.244Z,96955.63
2023-02-26T00:50:27.270Z,96938.28
2023-02-26T00:55:31.135Z,96947.38
2023-02-26T01:00:34.706Z,96957.00
2023-02-26T01:05:41.397Z,96950.63
2023-02-26T01:10:45.199Z,96951.13
2023-02-26T01:15:52.962Z,96958.72
2023-02-26T01:21:03.870Z,96963.16
2023-02-26T01:26:13.721Z,96956.91
2023-02-26T01:31:26.821Z,96966.00
2023-02-26T01:36:37.838Z,96963.03
2023-02-26T01:41:48.011Z,96977.56
2023-02-26T01:47:08.230Z,96975.38
2023-02-26T01:52:47.026Z,96977.84
2023-02-26T01:57:55.214Z,96981.22
2023-02-26T02:02:59.297Z,96990.66
2023-02-26T02:08:02.831Z,96991.66
2023-02-26T02:13:22.359Z,97005.09
2023-02-26T02:18:36.439Z,97002.50
2023-02-26T02:23:44.427Z,97000.88
2023-02-26T02:29:17.960Z,97000.97
2023-02-26T02:34:25.384Z,97008.91
2023-02-26T02:39:33.533Z,97016.28
2023-02-26T02:44:41.074Z,97012.59
2023-02-26T02:49:51.527Z,97023.59
2023-02-26T02:55:00.773Z,97023.19
2023-02-26T03:00:10.606Z,97028.59
2023-02-26T03:05:16.530Z,97040.50
2023-02-26T03:10:20.355Z,97037.41
2023-02-26T03:15:32.867Z,97036.59
2023-02-26T03:20:47.533Z,97049.13
2023-02-26T03:25:56.193Z,97054.88
2023-02-26T03:31:07.124Z,97066.59
2023-02-26T03:36:16.072Z,97059.53
2023-02-26T03:41:32.733Z,97064.41
2023-02-26T03:46:41.054Z,97074.16
2023-02-26T03:51:47.401Z,97083.13
2023-02-26T03:57:09.073Z,97095.19
2023-02-26T04:02:38.731Z,97098.72
2023-02-26T04:07:51.333Z,97110.59
2023-02-26T04:12:54.752Z,97112.78
2023-02-26T04:17:58.010Z,97115.72
2023-02-26T04:23:02.745Z,97129.25
2023-02-26T04:28:06.006Z,97128.09
2023-02-26T04:33:09.846Z,97148.94
2023-02-26T04:38:14.983Z,97143.53
2023-02-26T04:43:18.912Z,97143.66
2023-02-26T04:48:41.710Z,97152.88
2023-02-26T04:53:46.480Z,97165.06
2023-02-26T04:58:50.246Z,97164.13
2023-02-26T05:03:59.388Z,97168.63
2023-02-26T05:09:04.069Z,97180.69
2023-02-26T05:14:07.194Z,97188.25
2023-02-26T05:19:10.771Z,97199.34
2023-02-26T05:24:16.115Z,97200.44
2023-02-26T05:29:19.585Z,97203.59
2023-02-26T05:34:22.960Z,97218.13
2023-02-26T05:39:27.533Z,97221.34
2023-02-26T05:44:30.681Z,97227.75
2023-02-26T05:49:34.232Z,97232.22
2023-02-26T05:54:39.073Z,97239.03
2023-02-26T05:59:42.310Z,97256.59
2023-02-26T06:04:45.683Z,97268.91
2023-02-26T06:09:50.088Z,97271.56
2023-02-26T06:14:53.170Z,97288.03
2023-02-26T06:19:56.326Z,97297.06
2023-02-26T06:25:00.925Z,97315.53
2023-02-26T06:30:04.681Z,97315.38
2023-02-26T06:35:09.432Z,97327.78
2023-02-26T06:40:15.015Z,97340.78
2023-02-26T06:45:18.558Z,97336.66
2023-02-26T06:50:22.364Z,97352.66
2023-02-26T06:55:27.572Z,97361.41
2023-02-26T07:00:30.919Z,97366.41
2023-02-26T07:05:34.285Z,97378.88
2023-02-26T07:10:39.571Z,97394.19
2023-02-26T07:15:45.363Z,97391.88
2023-02-26T07:20:50.871Z,97404.66
2023-02-26T07:25:56.385Z,97406.88
2023-02-26T07:30:59.666Z,97419.00
2023-02-26T07:36:03.387Z,97416.44
2023-02-26T07:41:08.859Z,97423.91
2023-02-26T07:46:12.414Z,97436.66
2023-02-26T07:51:16.264Z,97446.91
2023-02-26T07:56:21.706Z,97449.00
2023-02-26T08:01:24.985Z,97462.13
2023-02-26T08:06:28.407Z,97467.72
2023-02-26T08:11:36.656Z,97481.22
2023-02-26T08:16:39.886Z,97491.78
2023-02-26T08:21:43.128Z,97502.94
2023-02-26T08:26:47.844Z,97506.38
2023-02-26T08:31:51.189Z,97516.22
2023-02-26T08:36:54.447Z,97533.50
2023-02-26T08:41:59.076Z,97529.66
2023-02-26T08:47:03.881Z,97549.50
2023-02-26T08:52:07.548Z,97552.50
2023-02-26T08:57:13.574Z,97566.63
2023-02-26T09:02:16.963Z,97563.09
2023-02-26T09:07:20.403Z,97579.88
2023-02-26T09:12:26.049Z,97587.50
2023-02-26T09:17:29.110Z,97594.41
2023-02-26T09:22:32.636Z,97613.22
2023-02-26T09:27:37.501Z,97613.56
2023-02-26T09:32:40.908Z,97617.25
2023-02-26T09:37:44.748Z,97623.03
2023-02-26T09:43:05.089Z,97634.06
2023-02-26T09:48:08.488Z,97642.41
2023-02-26T09:53:19.209Z,97642.16
2023-02-26T09:58:28.422Z,97647.81
2023-02-26T10:03:36.658Z,97659.34
2023-02-26T10:08:57.785Z,97660.38
2023-02-26T10:14:07.473Z,97660.69
2023-02-26T10:19:18.782Z,97681.44
2023-02-26T10:24:25.992Z,97683.84
2023-02-26T10:29:39.306Z,97683.69
2023-02-26T10:34:49.052Z,97696.75
2023-02-26T10:39:57.068Z,97697.69
2023-02-26T10:45:12.887Z,97700.50
2023-02-26T10:50:19.359Z,97703.66
2023-02-26T10:55:33.802Z,97719.44
2023-02-26T11:00:40.621Z,97708.28
2023-02-26T11:05:44.864Z,97722.53
2023-02-26T11:10:53.583Z,97711.72
2023-02-26T11:16:03.465Z,97720.34
2023-02-26T11:21:07.795Z,97725.69
2023-02-26T11:26:19.057Z,97726.13
2023-02-26T11:31:26.531Z,97723.97
2023-02-26T11:36:32.485Z,97731.38
2023-02-26T11:41:39.455Z,97731.13
2023-02-26T11:46:50.489Z,97726.03
2023-02-26T11:52:07.332Z,97725.81
2023-02-26T11:57:19.005Z,97725.47
2023-02-26T12:02:28.022Z,97720.84
2023-02-26T12:07:32.763Z,97722.84
2023-02-26T12:12:52.080Z,97715.78
2023-02-26T12:18:34.186Z,97715.84
2023-02-26T12:24:12.635Z,97718.16
2023-02-26T12:29:34.263Z,97714.72
2023-02-26T12:35:13.700Z,97719.41
2023-02-26T12:40:38.488Z,97719.50
2023-02-26T12:45:54.070Z,97726.84
2023-02-26T12:51:06.196Z,97730.81
2023-02-26T12:56:40.424Z,97731.59
2023-02-26T13:02:01.869Z,97734.91
2023-02-26T13:07:32.094Z,97729.03
2023-02-26T13:12:46.217Z,97739.69
2023-02-26T13:17:58.374Z,97744.41
2023-02-26T13:23:05.920Z,97741.66
2023-02-26T13:28:32.098Z,97747.19
2023-02-26T13:33:37.984Z,97748.38
2023-02-26T13:38:51.371Z,97745.63
2023-02-26T13:44:11.791Z,97749.91
2023-02-26T13:49:22.065Z,97762.50
2023-02-26T13:54:42.545Z,97751.75
2023-02-26T13:59:55.808Z,97745.53
2023-02-26T14:05:00.974Z,97760.72
2023-02-26T14:10:16.104Z,97761.06
2023-02-26T14:15:30.033Z,97765.56
2023-02-26T14:20:36.075Z,97772.19
2023-02-26T14:25:41.109Z,97774.72
2023-02-26T14:30:51.168Z,97776.59
2023-02-26T14:35:55.854Z,97776.13
2023-02-26T14:41:06.128Z,97777.69
2023-02-26T14:46:12.509Z,97777.50
2023-02-26T14:51:25.118Z,97776.34
2023-02-26T14:56:40.979Z,97776.63
2023-02-26T15:01:53.237Z,97768.25
2023-02-26T15:07:28.233Z,97776.91
2023-02-26T15:12:44.365Z,97781.38
2023-02-26T15:18:15.241Z,97778.88
2023-02-26T15:23:33.604Z,97780.13
2023-02-26T15:28:39.996Z,97781.22
2023-02-26T15:33:45.488Z,97790.09
2023-02-26T15:38:51.825Z,97792.34
2023-02-26T15:44:00.678Z,97794.16
2023-02-26T15:49:10.881Z,97803.25
2023-02-26T15:54:18.544Z,97812.53
2023-02-26T15:59:27.034Z,97817.19
2023-02-26T16:04:31.956Z,97823.19
2023-02-26T16:09:37.495Z,97820.06
2023-02-26T16:14:45.416Z,97824.41
2023-02-26T16:19:52.128Z,97823.34
2023-02-26T16:25:00.451Z,97824.56
2023-02-26T16:30:07.601Z,97838.34
2023-02-26T16:35:18.460Z,97837.06
2023-02-26T16:40:26.457Z,97859.00
2023-02-26T16:45:51.187Z,97858.44
2023-02-26T16:51:01.330Z,97863.09
2023-02-26T16:56:06.892Z,97875.25
2023-02-26T17:01:16.427Z,97883.16
2023-02-26T17:06:24.067Z,97890.00
2023-02-26T17:11:30.692Z,97892.81
2023-02-26T17:16:34.255Z,97899.00
2023-02-26T17:21:44.869Z,97908.66
2023-02-26T17:26:49.408Z,97907.56
2023-02-26T17:31:53.246Z,97918.63
2023-02-26T17:36:59.748Z,97920.25
2023-02-26T17:42:03.252Z,97930.16
2023-02-26T17:47:07.140Z,97932.66
2023-02-26T17:52:12.478Z,97938.53
2023-02-26T17:57:18.765Z,97950.00
2023-02-26T18:02:25.500Z,97955.47
2023-02-26T18:07:30.543Z,97963.75
2023-02-26T18:12:34.436Z,97968.81
2023-02-26T18:17:38.468Z,97971.59
2023-02-26T18:22:43.914Z,97969.50
2023-02-26T18:27:51.646Z,97978.66
2023-02-26T18:32:56.096Z,97974.13
2023-02-26T18:38:02.830Z,97976.09
2023-02-26T18:43:06.129Z,97984.38
2023-02-26T18:48:11.912Z,97986.13
2023-02-26T18:53:23.276Z,97984.41
2023-02-26T18:58:27.287Z,97994.31
2023-02-26T19:03:30.738Z,98000.66
2023-02-26T19:08:35.688Z,98002.94
2023-02-26T19:13:38.814Z,98011.63
2023-02-26T19:18:42.540Z,98018.13
2023-02-26T19:23:48.565Z,98014.25
2023-02-26T19:28:52.887Z,98021.59
2023-02-26T19:33:56.115Z,98021.91
2023-02-26T19:39:01.973Z,98019.63
2023-02-26T19:44:05.638Z,98030.69
2023-02-26T19:49:09.999Z,98043.75
2023-02-26T19:54:15.038Z,98059.56
2023-02-26T19:59:19.314Z,98063.56
2023-02-26T20:04:22.882Z,98070.06
2023-02-26T20:09:28.068Z,98082.38
2023-02-26T20:14:31.300Z,98091.22
2023-02-26T20:19:34.473Z,98090.22
2023-02-26T20:24:39.229Z,98101.03
2023-02-26T20:29:43.373Z,98104.63
2023-02-26T20:34:47.185Z,98104.13
2023-02-26T20:39:52.331Z,98106.75
2023-02-26T20:44:55.991Z,98119.06
2023-02-26T20:49:59.294Z,98123.63
2023-02-26T20:55:05.361Z,98127.13
2023-02-26T21:00:11.602Z,98131.53
2023-02-26T21:05:16.494Z,98133.28
2023-02-26T21:10:22.713Z,98143.66
2023-02-26T21:15:26.590Z,98145.44
2023-02-26T21:20:29.903Z,98145.44
2023-02-26T21:25:35.470Z,98160.94
2023-02-26T21:30:39.540Z,98159.25
2023-02-26T21:35:42.778Z,98160.06
2023-02-26T21:40:47.381Z,98165.38
2023-02-26T21:45:50.960Z,98170.59
2023-02-26T21:50:56.352Z,98164.56
2023-02-26T21:56:01.099Z,98168.91
2023-02-26T22:01:04.851Z,98164.72
2023-02-26T22:06:08.588Z,98166.41
2023-02-26T22:11:13.358Z,98174.19
2023-02-26T22:16:16.987Z,98177.72
2023-02-26T22:21:20.562Z,98169.16
2023-02-26T22:26:25.323Z,98176.00
2023-02-26T22:31:29.764Z,98176.00
2023-02-26T22:36:34.729Z,98172.59
2023-02-26T22:41:39.466Z,98186.34
2023-02-26T22:46:42.760Z,98188.06
2023-02-26T22:51:46.031Z,98186.34
2023-02-26T22:56:50.786Z,98186.34
2023-02-26T23:01:54.295Z,98190.63
2023-02-26T23:06:57.778Z,98193.22
2023-02-26T23:12:02.614Z,98191.47
2023-02-26T23:17:06.424Z,98196.63
2023-02-26T23:22:09.780Z,98198.31
2023-02-26T23:27:14.556Z,98196.59
2023-02-26T23:32:17.937Z,98203.47
2023-02-26T23:37:21.430Z,98203.47
2023-02-26T23:42:26.709Z,98208.56
2023-02-26T23:47:29.848Z,98212.88
2023-02-26T23:52:33.305Z,98208.53
2023-02-26T23:57:37.910Z,98210.28
